sensor_id;sensor_type;location;lat;lon;timestamp;P1;durP1;ratioP1;P2;durP2;ratioP2
22814;SDS011;11574;51.058;13.712;2022-11-25T00:03:50;11.30;;;3.83;;
22814;SDS011;11574;51.058;13.712;2022-11-25T00:08:54;11.30;;;4.40;;
22814;SDS011;11574;51.058;13.712;2022-11-25T00:13:58;11.03;;;4.17;;
22814;SDS011;11574;51.058;13.712;2022-11-25T00:19:00;11.70;;;4.27;;
22814;SDS011;11574;51.058;13.712;2022-11-25T00:24:03;7.43;;;3.77;;
22814;SDS011;11574;51.058;13.712;2022-11-25T00:29:10;10.50;;;4.17;;
22814;SDS011;11574;51.058;13.712;2022-11-25T00:34:13;11.43;;;4.13;;
22814;SDS011;11574;51.058;13.712;2022-11-25T00:39:15;10.00;;;4.30;;
22814;SDS011;11574;51.058;13.712;2022-11-25T00:44:20;9.33;;;4.40;;
22814;SDS011;11574;51.058;13.712;2022-11-25T00:49:39;12.57;;;4.50;;
22814;SDS011;11574;51.058;13.712;2022-11-25T00:54:42;10.83;;;4.73;;
22814;SDS011;11574;51.058;13.712;2022-11-25T00:59:46;12.00;;;5.10;;
22814;SDS011;11574;51.058;13.712;2022-11-25T01:04:48;16.43;;;5.07;;
22814;SDS011;11574;51.058;13.712;2022-11-25T01:09:50;11.60;;;4.73;;
22814;SDS011;11574;51.058;13.712;2022-11-25T01:14:54;11.33;;;5.10;;
22814;SDS011;11574;51.058;13.712;2022-11-25T01:19:56;14.77;;;5.93;;
22814;SDS011;11574;51.058;13.712;2022-11-25T01:24:58;16.17;;;6.03;;
22814;SDS011;11574;51.058;13.712;2022-11-25T01:30:02;18.60;;;7.33;;
22814;SDS011;11574;51.058;13.712;2022-11-25T01:35:04;16.33;;;7.63;;
22814;SDS011;11574;51.058;13.712;2022-11-25T01:40:07;19.13;;;8.07;;
22814;SDS011;11574;51.058;13.712;2022-11-25T01:45:31;14.53;;;7.70;;
22814;SDS011;11574;51.058;13.712;2022-11-25T01:50:33;12.50;;;7.60;;
22814;SDS011;11574;51.058;13.712;2022-11-25T01:55:36;14.17;;;7.40;;
22814;SDS011;11574;51.058;13.712;2022-11-25T02:00:40;14.30;;;7.73;;
22814;SDS011;11574;51.058;13.712;2022-11-25T02:05:51;17.53;;;7.40;;
22814;SDS011;11574;51.058;13.712;2022-11-25T02:10:55;17.37;;;8.03;;
22814;SDS011;11574;51.058;13.712;2022-11-25T02:15:59;19.70;;;8.17;;
22814;SDS011;11574;51.058;13.712;2022-11-25T02:21:02;13.43;;;7.80;;
22814;SDS011;11574;51.058;13.712;2022-11-25T02:26:05;15.33;;;7.80;;
22814;SDS011;11574;51.058;13.712;2022-11-25T02:31:07;14.50;;;7.60;;
22814;SDS011;11574;51.058;13.712;2022-11-25T02:36:10;14.80;;;7.60;;
22814;SDS011;11574;51.058;13.712;2022-11-25T02:41:15;16.93;;;7.93;;
22814;SDS011;11574;51.058;13.712;2022-11-25T02:46:19;20.23;;;8.70;;
22814;SDS011;11574;51.058;13.712;2022-11-25T02:51:23;18.63;;;7.57;;
22814;SDS011;11574;51.058;13.712;2022-11-25T02:56:28;19.43;;;7.53;;
22814;SDS011;11574;51.058;13.712;2022-11-25T03:01:31;20.43;;;8.57;;
22814;SDS011;11574;51.058;13.712;2022-11-25T03:06:34;15.97;;;7.17;;
22814;SDS011;11574;51.058;13.712;2022-11-25T03:11:37;14.83;;;7.73;;
22814;SDS011;11574;51.058;13.712;2022-11-25T03:17:02;13.57;;;7.80;;
22814;SDS011;11574;51.058;13.712;2022-11-25T03:22:04;15.83;;;7.73;;
22814;SDS011;11574;51.058;13.712;2022-11-25T03:27:08;13.23;;;7.83;;
22814;SDS011;11574;51.058;13.712;2022-11-25T03:32:10;15.27;;;7.30;;
22814;SDS011;11574;51.058;13.712;2022-11-25T03:37:12;14.10;;;6.87;;
22814;SDS011;11574;51.058;13.712;2022-11-25T03:42:16;14.40;;;7.37;;
22814;SDS011;11574;51.058;13.712;2022-11-25T03:47:18;18.57;;;7.07;;
22814;SDS011;11574;51.058;13.712;2022-11-25T03:52:20;14.63;;;7.00;;
22814;SDS011;11574;51.058;13.712;2022-11-25T03:57:24;14.77;;;6.63;;
22814;SDS011;11574;51.058;13.712;2022-11-25T04:02:26;14.30;;;7.10;;
22814;SDS011;11574;51.058;13.712;2022-11-25T04:07:28;16.57;;;7.27;;
22814;SDS011;11574;51.058;13.712;2022-11-25T04:12:31;11.37;;;6.77;;
22814;SDS011;11574;51.058;13.712;2022-11-25T04:17:49;10.70;;;6.67;;
22814;SDS011;11574;51.058;13.712;2022-11-25T04:22:51;15.67;;;6.70;;
22814;SDS011;11574;51.058;13.712;2022-11-25T04:27:54;12.10;;;6.03;;
22814;SDS011;11574;51.058;13.712;2022-11-25T04:32:57;12.23;;;6.43;;
22814;SDS011;11574;51.058;13.712;2022-11-25T04:37:59;14.90;;;6.50;;
22814;SDS011;11574;51.058;13.712;2022-11-25T04:43:02;13.10;;;6.57;;
22814;SDS011;11574;51.058;13.712;2022-11-25T04:48:04;12.53;;;6.50;;
22814;SDS011;11574;51.058;13.712;2022-11-25T04:53:08;9.13;;;6.00;;
22814;SDS011;11574;51.058;13.712;2022-11-25T04:58:11;11.57;;;6.33;;
22814;SDS011;11574;51.058;13.712;2022-11-25T05:03:13;14.20;;;7.13;;
22814;SDS011;11574;51.058;13.712;2022-11-25T05:08:15;11.07;;;5.83;;
22814;SDS011;11574;51.058;13.712;2022-11-25T05:13:19;17.17;;;6.80;;
22814;SDS011;11574;51.058;13.712;2022-11-25T05:18:21;11.27;;;6.63;;
22814;SDS011;11574;51.058;13.712;2022-11-25T05:23:23;13.23;;;7.27;;
22814;SDS011;11574;51.058;13.712;2022-11-25T05:28:27;12.70;;;7.40;;
22814;SDS011;11574;51.058;13.712;2022-11-25T05:33:29;15.17;;;8.03;;
22814;SDS011;11574;51.058;13.712;2022-11-25T05:38:31;12.90;;;6.87;;
22814;SDS011;11574;51.058;13.712;2022-11-25T05:43:35;17.60;;;7.83;;
22814;SDS011;11574;51.058;13.712;2022-11-25T05:48:37;12.80;;;6.83;;
22814;SDS011;11574;51.058;13.712;2022-11-25T05:53:39;14.23;;;7.20;;
22814;SDS011;11574;51.058;13.712;2022-11-25T05:58:43;12.23;;;7.30;;
22814;SDS011;11574;51.058;13.712;2022-11-25T06:03:45;15.23;;;7.73;;
22814;SDS011;11574;51.058;13.712;2022-11-25T06:08:47;13.57;;;7.23;;
22814;SDS011;11574;51.058;13.712;2022-11-25T06:13:52;13.20;;;7.40;;
22814;SDS011;11574;51.058;13.712;2022-11-25T06:18:54;12.83;;;6.53;;
22814;SDS011;11574;51.058;13.712;2022-11-25T06:23:56;15.53;;;8.10;;
22814;SDS011;11574;51.058;13.712;2022-11-25T06:29:00;13.80;;;7.80;;
22814;SDS011;11574;51.058;13.712;2022-11-25T06:34:03;14.17;;;7.23;;
22814;SDS011;11574;51.058;13.712;2022-11-25T06:39:08;11.70;;;7.10;;
22814;SDS011;11574;51.058;13.712;2022-11-25T06:44:11;12.50;;;5.67;;
22814;SDS011;11574;51.058;13.712;2022-11-25T06:49:13;11.97;;;5.67;;
22814;SDS011;11574;51.058;13.712;2022-11-25T06:54:16;10.13;;;5.53;;
22814;SDS011;11574;51.058;13.712;2022-11-25T06:59:19;10.70;;;6.00;;
22814;SDS011;11574;51.058;13.712;2022-11-25T07:04:22;9.83;;;5.30;;
22814;SDS011;11574;51.058;13.712;2022-11-25T07:09:24;9.50;;;4.97;;
22814;SDS011;11574;51.058;13.712;2022-11-25T07:14:34;7.90;;;5.17;;
22814;SDS011;11574;51.058;13.712;2022-11-25T07:19:36;13.77;;;6.17;;
22814;SDS011;11574;51.058;13.712;2022-11-25T07:24:39;12.20;;;6.00;;
22814;SDS011;11574;51.058;13.712;2022-11-25T07:29:42;15.80;;;7.40;;
22814;SDS011;11574;51.058;13.712;2022-11-25T07:34:45;13.47;;;6.67;;
22814;SDS011;11574;51.058;13.712;2022-11-25T07:39:47;11.57;;;6.60;;
22814;SDS011;11574;51.058;13.712;2022-11-25T07:44:50;13.10;;;6.83;;
22814;SDS011;11574;51.058;13.712;2022-11-25T07:49:54;14.23;;;6.57;;
22814;SDS011;11574;51.058;13.712;2022-11-25T07:54:56;10.47;;;6.43;;
22814;SDS011;11574;51.058;13.712;2022-11-25T08:00:00;11.90;;;7.60;;
22814;SDS011;11574;51.058;13.712;2022-11-25T08:05:03;11.63;;;7.35;;
22814;SDS011;11574;51.058;13.712;2022-11-25T08:10:05;14.60;;;6.77;;
22814;SDS011;11574;51.058;13.712;2022-11-25T08:15:09;13.17;;;6.50;;
22814;SDS011;11574;51.058;13.712;2022-11-25T08:20:13;12.03;;;6.47;;
22814;SDS011;11574;51.058;13.712;2022-11-25T08:25:15;12.30;;;6.33;;
22814;SDS011;11574;51.058;13.712;2022-11-25T08:30:19;14.13;;;6.13;;
22814;SDS011;11574;51.058;13.712;2022-11-25T08:35:23;11.27;;;5.30;;
22814;SDS011;11574;51.058;13.712;2022-11-25T08:40:25;8.97;;;5.23;;
22814;SDS011;11574;51.058;13.712;2022-11-25T08:45:29;8.10;;;5.50;;
22814;SDS011;11574;51.058;13.712;2022-11-25T08:50:31;10.17;;;5.83;;
22814;SDS011;11574;51.058;13.712;2022-11-25T08:55:33;8.87;;;4.97;;
22814;SDS011;11574;51.058;13.712;2022-11-25T09:00:39;11.47;;;5.57;;
22814;SDS011;11574;51.058;13.712;2022-11-25T09:05:42;8.57;;;5.13;;
22814;SDS011;11574;51.058;13.712;2022-11-25T09:10:45;9.53;;;5.00;;
22814;SDS011;11574;51.058;13.712;2022-11-25T09:15:48;7.87;;;5.00;;
22814;SDS011;11574;51.058;13.712;2022-11-25T09:21:06;9.23;;;5.50;;
22814;SDS011;11574;51.058;13.712;2022-11-25T09:26:14;10.47;;;5.13;;
22814;SDS011;11574;51.058;13.712;2022-11-25T09:31:21;11.70;;;5.37;;
22814;SDS011;11574;51.058;13.712;2022-11-25T09:36:23;9.67;;;5.27;;
22814;SDS011;11574;51.058;13.712;2022-11-25T09:52:34;10.73;;;5.30;;
22814;SDS011;11574;51.058;13.712;2022-11-25T09:57:48;8.85;;;6.20;;
22814;SDS011;11574;51.058;13.712;2022-11-25T10:02:54;8.53;;;5.20;;
22814;SDS011;11574;51.058;13.712;2022-11-25T10:08:02;9.87;;;5.37;;
22814;SDS011;11574;51.058;13.712;2022-11-25T10:13:10;9.88;;;6.20;;
22814;SDS011;11574;51.058;13.712;2022-11-25T10:18:16;10.43;;;5.83;;
22814;SDS011;11574;51.058;13.712;2022-11-25T10:23:26;11.03;;;6.23;;
22814;SDS011;11574;51.058;13.712;2022-11-25T10:28:29;10.47;;;5.53;;
22814;SDS011;11574;51.058;13.712;2022-11-25T10:33:53;10.57;;;6.65;;
22814;SDS011;11574;51.058;13.712;2022-11-25T10:39:06;11.40;;;5.87;;
22814;SDS011;11574;51.058;13.712;2022-11-25T10:44:11;11.77;;;5.63;;
22814;SDS011;11574;51.058;13.712;2022-11-25T10:49:18;9.70;;;5.40;;
22814;SDS011;11574;51.058;13.712;2022-11-25T10:54:27;11.83;;;5.87;;
22814;SDS011;11574;51.058;13.712;2022-11-25T10:59:30;15.27;;;5.57;;
22814;SDS011;11574;51.058;13.712;2022-11-25T11:04:33;8.97;;;5.20;;
22814;SDS011;11574;51.058;13.712;2022-11-25T11:09:37;12.27;;;5.70;;
22814;SDS011;11574;51.058;13.712;2022-11-25T11:14:40;10.70;;;5.13;;
22814;SDS011;11574;51.058;13.712;2022-11-25T11:19:42;15.10;;;5.23;;
22814;SDS011;11574;51.058;13.712;2022-11-25T11:25:08;15.10;;;5.37;;
22814;SDS011;11574;51.058;13.712;2022-11-25T11:30:13;9.93;;;5.47;;
22814;SDS011;11574;51.058;13.712;2022-11-25T11:35:20;9.97;;;5.67;;
22814;SDS011;11574;51.058;13.712;2022-11-25T11:40:30;13.80;;;5.90;;
22814;SDS011;11574;51.058;13.712;2022-11-25T11:45:40;17.53;;;6.50;;
22814;SDS011;11574;51.058;13.712;2022-11-25T11:50:44;13.07;;;6.57;;
22814;SDS011;11574;51.058;13.712;2022-11-25T11:55:56;9.77;;;5.80;;
22814;SDS011;11574;51.058;13.712;2022-11-25T12:01:02;10.97;;;5.73;;
22814;SDS011;11574;51.058;13.712;2022-11-25T12:06:07;9.73;;;6.23;;
22814;SDS011;11574;51.058;13.712;2022-11-25T12:11:13;12.93;;;6.27;;
22814;SDS011;11574;51.058;13.712;2022-11-25T12:16:17;14.37;;;6.77;;
22814;SDS011;11574;51.058;13.712;2022-11-25T12:21:27;11.60;;;6.30;;
22814;SDS011;11574;51.058;13.712;2022-11-25T12:26:36;11.40;;;6.37;;
22814;SDS011;11574;51.058;13.712;2022-11-25T12:31:41;10.37;;;5.90;;
22814;SDS011;11574;51.058;13.712;2022-11-25T12:36:44;13.17;;;7.03;;
22814;SDS011;11574;51.058;13.712;2022-11-25T12:41:49;16.53;;;6.23;;
22814;SDS011;11574;51.058;13.712;2022-11-25T12:46:53;12.33;;;6.03;;
22814;SDS011;11574;51.058;13.712;2022-11-25T12:51:59;12.40;;;6.70;;
22814;SDS011;11574;51.058;13.712;2022-11-25T12:57:16;10.67;;;5.73;;
22814;SDS011;11574;51.058;13.712;2022-11-25T13:02:28;13.23;;;6.27;;
22814;SDS011;11574;51.058;13.712;2022-11-25T13:07:35;13.80;;;6.30;;
22814;SDS011;11574;51.058;13.712;2022-11-25T13:12:43;13.27;;;5.87;;
22814;SDS011;11574;51.058;13.712;2022-11-25T13:17:53;14.60;;;5.83;;
22814;SDS011;11574;51.058;13.712;2022-11-25T13:23:00;10.97;;;6.10;;
22814;SDS011;11574;51.058;13.712;2022-11-25T13:28:04;16.23;;;7.00;;
22814;SDS011;11574;51.058;13.712;2022-11-25T13:43:52;13.53;;;7.27;;
22814;SDS011;11574;51.058;13.712;2022-11-25T13:48:56;15.33;;;7.20;;
22814;SDS011;11574;51.058;13.712;2022-11-25T13:53:59;20.37;;;7.73;;
22814;SDS011;11574;51.058;13.712;2022-11-25T14:04:53;15.67;;;7.90;;
22814;SDS011;11574;51.058;13.712;2022-11-25T14:10:02;18.07;;;7.80;;
22814;SDS011;11574;51.058;13.712;2022-11-25T14:20:32;14.13;;;8.30;;
22814;SDS011;11574;51.058;13.712;2022-11-25T14:25:42;15.00;;;7.83;;
22814;SDS011;11574;51.058;13.712;2022-11-25T14:30:46;19.37;;;8.53;;
22814;SDS011;11574;51.058;13.712;2022-11-25T14:35:52;17.90;;;8.17;;
22814;SDS011;11574;51.058;13.712;2022-11-25T14:40:56;21.13;;;9.07;;
22814;SDS011;11574;51.058;13.712;2022-11-25T14:46:10;20.73;;;9.30;;
22814;SDS011;11574;51.058;13.712;2022-11-25T14:51:15;18.80;;;9.23;;
22814;SDS011;11574;51.058;13.712;2022-11-25T14:56:20;17.17;;;9.27;;
22814;SDS011;11574;51.058;13.712;2022-11-25T15:01:24;18.30;;;9.73;;
22814;SDS011;11574;51.058;13.712;2022-11-25T15:06:33;21.03;;;9.67;;
22814;SDS011;11574;51.058;13.712;2022-11-25T15:11:35;18.77;;;9.70;;
22814;SDS011;11574;51.058;13.712;2022-11-25T15:16:39;18.80;;;10.57;;
22814;SDS011;11574;51.058;13.712;2022-11-25T15:21:44;23.60;;;11.50;;
22814;SDS011;11574;51.058;13.712;2022-11-25T15:26:49;20.33;;;10.80;;
22814;SDS011;11574;51.058;13.712;2022-11-25T15:31:59;28.17;;;12.23;;
22814;SDS011;11574;51.058;13.712;2022-11-25T15:37:02;25.07;;;11.23;;
22814;SDS011;11574;51.058;13.712;2022-11-25T15:42:05;26.83;;;12.47;;
22814;SDS011;11574;51.058;13.712;2022-11-25T15:47:14;22.07;;;12.33;;
22814;SDS011;11574;51.058;13.712;2022-11-25T15:52:22;24.43;;;12.67;;
22814;SDS011;11574;51.058;13.712;2022-11-25T15:57:26;24.53;;;12.57;;
22814;SDS011;11574;51.058;13.712;2022-11-25T16:02:30;25.40;;;12.23;;
22814;SDS011;11574;51.058;13.712;2022-11-25T16:07:34;25.37;;;12.73;;
22814;SDS011;11574;51.058;13.712;2022-11-25T16:12:37;25.73;;;11.90;;
22814;SDS011;11574;51.058;13.712;2022-11-25T16:17:39;30.50;;;12.37;;
22814;SDS011;11574;51.058;13.712;2022-11-25T16:22:43;25.20;;;13.13;;
22814;SDS011;11574;51.058;13.712;2022-11-25T16:27:45;26.93;;;13.17;;
22814;SDS011;11574;51.058;13.712;2022-11-25T16:32:47;23.10;;;12.77;;
22814;SDS011;11574;51.058;13.712;2022-11-25T16:37:51;29.13;;;13.63;;
22814;SDS011;11574;51.058;13.712;2022-11-25T16:42:58;28.20;;;13.50;;
22814;SDS011;11574;51.058;13.712;2022-11-25T16:48:01;27.60;;;14.03;;
22814;SDS011;11574;51.058;13.712;2022-11-25T16:53:04;31.10;;;14.07;;
22814;SDS011;11574;51.058;13.712;2022-11-25T16:58:08;35.77;;;14.43;;
22814;SDS011;11574;51.058;13.712;2022-11-25T17:03:12;24.43;;;13.23;;
22814;SDS011;11574;51.058;13.712;2022-11-25T17:08:15;26.07;;;14.07;;
22814;SDS011;11574;51.058;13.712;2022-11-25T17:13:18;30.87;;;14.63;;
22814;SDS011;11574;51.058;13.712;2022-11-25T17:18:28;33.70;;;14.93;;
22814;SDS011;11574;51.058;13.712;2022-11-25T17:23:33;28.17;;;14.10;;
22814;SDS011;11574;51.058;13.712;2022-11-25T17:28:42;30.10;;;14.93;;
22814;SDS011;11574;51.058;13.712;2022-11-25T17:33:45;34.40;;;14.80;;
22814;SDS011;11574;51.058;13.712;2022-11-25T17:38:52;28.53;;;13.90;;
22814;SDS011;11574;51.058;13.712;2022-11-25T17:43:54;28.60;;;14.90;;
22814;SDS011;11574;51.058;13.712;2022-11-25T17:48:56;28.00;;;14.73;;
22814;SDS011;11574;51.058;13.712;2022-11-25T17:54:00;33.83;;;16.10;;
22814;SDS011;11574;51.058;13.712;2022-11-25T17:59:04;31.80;;;15.40;;
22814;SDS011;11574;51.058;13.712;2022-11-25T18:04:12;27.10;;;15.20;;
22814;SDS011;11574;51.058;13.712;2022-11-25T18:09:16;31.80;;;15.63;;
22814;SDS011;11574;51.058;13.712;2022-11-25T18:14:20;31.37;;;15.10;;
22814;SDS011;11574;51.058;13.712;2022-11-25T18:19:24;34.20;;;17.20;;
22814;SDS011;11574;51.058;13.712;2022-11-25T18:24:27;33.13;;;14.30;;
22814;SDS011;11574;51.058;13.712;2022-11-25T18:29:31;28.37;;;15.10;;
22814;SDS011;11574;51.058;13.712;2022-11-25T18:34:33;33.47;;;15.47;;
22814;SDS011;11574;51.058;13.712;2022-11-25T18:39:37;29.67;;;15.17;;
22814;SDS011;11574;51.058;13.712;2022-11-25T18:44:39;30.63;;;15.03;;
22814;SDS011;11574;51.058;13.712;2022-11-25T18:49:43;29.17;;;14.70;;
22814;SDS011;11574;51.058;13.712;2022-11-25T18:54:47;32.67;;;15.50;;
22814;SDS011;11574;51.058;13.712;2022-11-25T18:59:49;35.77;;;15.87;;
22814;SDS011;11574;51.058;13.712;2022-11-25T19:04:51;27.17;;;14.20;;
22814;SDS011;11574;51.058;13.712;2022-11-25T19:09:55;31.10;;;15.33;;
22814;SDS011;11574;51.058;13.712;2022-11-25T19:14:57;30.80;;;16.10;;
22814;SDS011;11574;51.058;13.712;2022-11-25T19:20:00;28.70;;;15.50;;
22814;SDS011;11574;51.058;13.712;2022-11-25T19:25:06;33.07;;;15.70;;
22814;SDS011;11574;51.058;13.712;2022-11-25T19:30:12;32.00;;;16.37;;
22814;SDS011;11574;51.058;13.712;2022-11-25T19:35:16;28.70;;;15.43;;
22814;SDS011;11574;51.058;13.712;2022-11-25T19:40:21;28.67;;;15.77;;
22814;SDS011;11574;51.058;13.712;2022-11-25T19:45:28;30.03;;;15.63;;
22814;SDS011;11574;51.058;13.712;2022-11-25T19:50:30;28.63;;;15.60;;
22814;SDS011;11574;51.058;13.712;2022-11-25T19:55:36;24.83;;;14.27;;
22814;SDS011;11574;51.058;13.712;2022-11-25T20:00:38;26.17;;;14.83;;
22814;SDS011;11574;51.058;13.712;2022-11-25T20:05:40;28.47;;;15.07;;
22814;SDS011;11574;51.058;13.712;2022-11-25T20:10:44;31.70;;;15.23;;
22814;SDS011;11574;51.058;13.712;2022-11-25T20:15:46;30.83;;;15.03;;
22814;SDS011;11574;51.058;13.712;2022-11-25T20:20:49;30.77;;;15.20;;
22814;SDS011;11574;51.058;13.712;2022-11-25T20:25:56;33.07;;;16.27;;
22814;SDS011;11574;51.058;13.712;2022-11-25T20:30:58;26.23;;;15.23;;
22814;SDS011;11574;51.058;13.712;2022-11-25T20:36:03;28.17;;;15.13;;
22814;SDS011;11574;51.058;13.712;2022-11-25T20:41:09;25.23;;;13.20;;
22814;SDS011;11574;51.058;13.712;2022-11-25T20:46:12;27.13;;;15.98;;
22814;SDS011;11574;51.058;13.712;2022-11-25T20:51:15;25.07;;;11.53;;
22814;SDS011;11574;51.058;13.712;2022-11-25T20:56:20;20.93;;;9.13;;
22814;SDS011;11574;51.058;13.712;2022-11-25T21:01:23;15.77;;;8.10;;
22814;SDS011;11574;51.058;13.712;2022-11-25T21:06:26;13.43;;;7.10;;
22814;SDS011;11574;51.058;13.712;2022-11-25T21:11:30;11.53;;;6.87;;
22814;SDS011;11574;51.058;13.712;2022-11-25T21:16:32;16.50;;;7.40;;
22814;SDS011;11574;51.058;13.712;2022-11-25T21:21:36;13.10;;;6.63;;
22814;SDS011;11574;51.058;13.712;2022-11-25T21:26:39;15.47;;;7.50;;
22814;SDS011;11574;51.058;13.712;2022-11-25T21:31:42;16.67;;;8.57;;
22814;SDS011;11574;51.058;13.712;2022-11-25T21:36:44;22.83;;;7.57;;
22814;SDS011;11574;51.058;13.712;2022-11-25T21:41:49;15.97;;;7.23;;
22814;SDS011;11574;51.058;13.712;2022-11-25T21:46:51;16.80;;;8.00;;
22814;SDS011;11574;51.058;13.712;2022-11-25T21:51:53;14.73;;;8.87;;
22814;SDS011;11574;51.058;13.712;2022-11-25T21:56:57;18.00;;;10.23;;
22814;SDS011;11574;51.058;13.712;2022-11-25T22:01:59;21.20;;;11.30;;
22814;SDS011;11574;51.058;13.712;2022-11-25T22:07:03;18.80;;;10.60;;
22814;SDS011;11574;51.058;13.712;2022-11-25T22:12:09;19.30;;;11.10;;
22814;SDS011;11574;51.058;13.712;2022-11-25T22:17:18;22.10;;;10.63;;
22814;SDS011;11574;51.058;13.712;2022-11-25T22:22:20;18.17;;;9.83;;
22814;SDS011;11574;51.058;13.712;2022-11-25T22:27:24;20.27;;;9.80;;
22814;SDS011;11574;51.058;13.712;2022-11-25T22:32:35;20.83;;;9.77;;
22814;SDS011;11574;51.058;13.712;2022-11-25T22:37:37;14.57;;;9.60;;
22814;SDS011;11574;51.058;13.712;2022-11-25T22:42:41;16.87;;;9.17;;
22814;SDS011;11574;51.058;13.712;2022-11-25T22:47:44;16.90;;;9.20;;
22814;SDS011;11574;51.058;13.712;2022-11-25T22:52:47;17.87;;;9.00;;
22814;SDS011;11574;51.058;13.712;2022-11-25T22:57:52;14.07;;;8.60;;
22814;SDS011;11574;51.058;13.712;2022-11-25T23:02:55;19.63;;;8.37;;
22814;SDS011;11574;51.058;13.712;2022-11-25T23:07:58;13.83;;;7.43;;
22814;SDS011;11574;51.058;13.712;2022-11-25T23:13:02;13.77;;;8.20;;
22814;SDS011;11574;51.058;13.712;2022-11-25T23:18:06;13.33;;;7.57;;
22814;SDS011;11574;51.058;13.712;2022-11-25T23:23:14;14.20;;;8.17;;
22814;SDS011;11574;51.058;13.712;2022-11-25T23:28:20;13.03;;;7.20;;
22814;SDS011;11574;51.058;13.712;2022-11-25T23:33:25;15.50;;;7.77;;
22814;SDS011;11574;51.058;13.712;2022-11-25T23:38:30;13.07;;;7.17;;
22814;SDS011;11574;51.058;13.712;2022-11-25T23:43:34;13.30;;;7.10;;
22814;SDS011;11574;51.058;13.712;2022-11-25T23:48:36;14.17;;;7.20;;
22814;SDS011;11574;51.058;13.712;2022-11-25T23:53:39;13.23;;;6.33;;
22814;SDS011;11574;51.058;13.712;2022-11-25T23:58:43;14.57;;;6.73;;
